createdAt,value
2023-03-28T00:02:08.009Z,6.15
2023-03-28T00:04:34.669Z,6.35
2023-03-28T00:07:01.310Z,6.50
2023-03-28T00:09:27.988Z,6.50
2023-03-28T00:11:54.570Z,5.82
2023-03-28T00:14:21.450Z,6.43
2023-03-28T00:16:48.176Z,6.35
2023-03-28T00:19:19.607Z,6.90
2023-03-28T00:21:48.870Z,6.47
2023-03-28T00:24:18.743Z,7.00
2023-03-28T00:26:45.901Z,7.13
2023-03-28T00:29:21.178Z,6.18
2023-03-28T00:31:49.571Z,6.45
2023-03-28T00:34:16.534Z,6.40
2023-03-28T00:36:43.204Z,6.63
2023-03-28T00:39:10.502Z,6.53
2023-03-28T00:41:41.505Z,7.10
2023-03-28T00:44:39.343Z,6.20
2023-03-28T00:47:30.798Z,6.20
2023-03-28T00:50:03.464Z,6.40
2023-03-28T00:52:39.917Z,6.50
2023-03-28T00:55:12.319Z,6.60
2023-03-28T00:57:40.062Z,6.20
2023-03-28T01:00:12.264Z,6.88
2023-03-28T01:02:45.569Z,6.50
2023-03-28T01:05:13.496Z,6.30
2023-03-28T01:07:46.051Z,5.97
2023-03-28T01:10:13.472Z,6.10
2023-03-28T01:12:42.727Z,6.35
2023-03-28T01:15:10.585Z,6.43
2023-03-28T01:17:37.813Z,6.40
2023-03-28T01:20:27.590Z,6.50
2023-03-28T01:23:23.581Z,6.30
2023-03-28T01:26:20.412Z,6.18
2023-03-28T01:28:58.941Z,6.22
2023-03-28T01:31:43.916Z,6.80
2023-03-28T01:34:44.775Z,7.60
2023-03-28T01:37:17.181Z,6.78
2023-03-28T01:40:23.159Z,7.15
2023-03-28T01:43:04.988Z,22.50
2023-03-28T01:45:51.021Z,8.50
2023-03-28T01:48:32.718Z,42.28
2023-03-28T01:51:29.548Z,59.30
2023-03-28T01:54:19.297Z,30.73
2023-03-28T01:56:51.747Z,14.65
2023-03-28T01:59:26.671Z,9.10
2023-03-28T02:02:01.266Z,8.23
2023-03-28T02:04:30.244Z,8.00
2023-03-28T02:06:58.116Z,6.65
2023-03-28T02:09:27.097Z,6.20
2023-03-28T02:11:59.665Z,7.30
2023-03-28T02:14:29.915Z,6.60
2023-03-28T02:17:04.538Z,6.57
2023-03-28T02:19:33.834Z,6.50
2023-03-28T02:22:12.138Z,6.25
2023-03-28T02:24:38.766Z,6.65
2023-03-28T02:27:08.409Z,6.40
2023-03-28T02:29:37.457Z,6.45
2023-03-28T02:32:04.262Z,6.70
2023-03-28T02:34:31.527Z,6.68
2023-03-28T02:37:13.203Z,6.47
2023-03-28T02:39:44.453Z,7.10
2023-03-28T02:42:25.799Z,6.53
2023-03-28T02:45:01.312Z,6.15
2023-03-28T02:47:57.087Z,7.10
2023-03-28T02:50:27.310Z,6.78
2023-03-28T02:53:05.133Z,6.25
2023-03-28T02:55:41.011Z,6.20
2023-03-28T02:58:22.884Z,8.30
2023-03-28T03:00:50.208Z,6.30
2023-03-28T03:03:18.051Z,6.35
2023-03-28T03:05:44.715Z,6.85
2023-03-28T03:08:11.795Z,7.10
2023-03-28T03:10:38.430Z,6.70
2023-03-28T03:13:05.355Z,6.80
2023-03-28T03:15:32.099Z,6.65
2023-03-28T03:17:59.541Z,6.95
2023-03-28T03:20:27.838Z,6.75
2023-03-28T03:22:55.461Z,6.95
2023-03-28T03:25:22.253Z,6.82
2023-03-28T03:27:48.858Z,7.40
2023-03-28T03:30:15.532Z,7.20
2023-03-28T03:32:44.071Z,6.63
2023-03-28T03:35:11.379Z,6.50
2023-03-28T03:37:38.154Z,6.53
2023-03-28T03:40:05.769Z,6.68
2023-03-28T03:42:33.262Z,6.57
2023-03-28T03:44:59.911Z,6.40
2023-03-28T03:47:26.846Z,6.50
2023-03-28T03:49:53.563Z,6.78
2023-03-28T03:52:20.179Z,6.53
2023-03-28T03:54:46.824Z,6.63
2023-03-28T03:57:13.567Z,6.30
2023-03-28T03:59:40.245Z,6.43
2023-03-28T04:02:06.933Z,6.97
2023-03-28T04:04:33.687Z,7.15
2023-03-28T04:07:02.289Z,6.82
2023-03-28T04:09:28.932Z,6.50
2023-03-28T04:11:55.932Z,6.70
2023-03-28T04:14:22.544Z,6.75
2023-03-28T04:16:53.805Z,7.32
2023-03-28T04:19:20.646Z,6.82
2023-03-28T04:21:48.824Z,6.32
2023-03-28T04:24:16.274Z,7.22
2023-03-28T04:26:45.886Z,7.07
2023-03-28T04:29:12.914Z,6.80
2023-03-28T04:31:39.852Z,6.68
2023-03-28T04:34:07.152Z,6.63
2023-03-28T04:36:33.831Z,7.95
2023-03-28T04:39:02.882Z,6.80
2023-03-28T04:41:32.152Z,7.80
2023-03-28T04:43:58.941Z,7.63
2023-03-28T04:46:25.759Z,6.95
2023-03-28T04:48:56.496Z,7.10
2023-03-28T04:51:24.924Z,7.05
2023-03-28T04:53:51.528Z,6.90
2023-03-28T04:56:18.287Z,7.00
2023-03-28T04:58:44.908Z,7.20
2023-03-28T05:01:11.710Z,7.22
2023-03-28T05:03:38.435Z,6.80
2023-03-28T05:06:06.515Z,7.30
2023-03-28T05:08:33.216Z,7.00
2023-03-28T05:11:00.162Z,7.60
2023-03-28T05:13:27.157Z,7.30
2023-03-28T05:15:53.900Z,7.30
2023-03-28T05:18:20.551Z,6.80
2023-03-28T05:20:47.184Z,7.10
2023-03-28T05:23:13.830Z,6.57
2023-03-28T05:25:40.525Z,7.70
2023-03-28T05:28:07.332Z,7.32
2023-03-28T05:30:34.135Z,6.78
2023-03-28T05:33:01.163Z,6.97
2023-03-28T05:35:27.854Z,6.90
2023-03-28T05:37:54.485Z,7.50
2023-03-28T05:40:21.213Z,7.20
2023-03-28T05:42:47.868Z,7.53
2023-03-28T05:45:14.994Z,7.30
2023-03-28T05:47:41.662Z,6.50
2023-03-28T05:50:09.224Z,8.43
2023-03-28T05:52:35.903Z,7.95
2023-03-28T05:55:02.584Z,7.10
2023-03-28T05:57:29.194Z,6.57
2023-03-28T05:59:55.881Z,7.65
2023-03-28T06:02:23.721Z,6.50
2023-03-28T06:04:53.447Z,6.03
2023-03-28T06:07:28.150Z,6.20
2023-03-28T06:09:58.480Z,6.22
2023-03-28T06:12:25.285Z,6.47
2023-03-28T06:14:51.885Z,6.00
2023-03-28T06:17:18.597Z,6.90
2023-03-28T06:19:45.258Z,6.25
2023-03-28T06:22:11.930Z,5.90
2023-03-28T06:24:38.546Z,6.38
2023-03-28T06:27:05.651Z,6.10
2023-03-28T06:29:32.258Z,5.63
2023-03-28T06:31:58.957Z,6.22
2023-03-28T06:34:26.082Z,6.15
2023-03-28T06:36:52.798Z,5.90
2023-03-28T06:39:19.409Z,6.10
2023-03-28T06:41:46.075Z,6.13
2023-03-28T06:44:12.703Z,5.40
2023-03-28T06:46:39.388Z,5.80
2023-03-28T06:49:06.594Z,6.38
2023-03-28T06:51:33.323Z,6.45
2023-03-28T06:54:00.221Z,5.70
2023-03-28T06:56:26.890Z,5.75
2023-03-28T06:58:53.520Z,5.63
2023-03-28T07:01:20.191Z,5.82
2023-03-28T07:03:48.140Z,6.35
2023-03-28T07:06:15.959Z,5.55
2023-03-28T07:08:42.637Z,5.65
2023-03-28T07:11:09.286Z,5.90
2023-03-28T07:13:36.218Z,5.80
2023-03-28T07:16:08.696Z,5.50
2023-03-28T07:18:35.479Z,5.65
2023-03-28T07:21:17.455Z,6.35
2023-03-28T07:23:47.202Z,5.97
2023-03-28T07:26:15.409Z,5.90
2023-03-28T07:28:42.366Z,5.72
2023-03-28T07:31:09.569Z,5.47
2023-03-28T07:33:38.364Z,5.80
2023-03-28T07:36:12.253Z,4.72
2023-03-28T07:38:39.129Z,5.97
2023-03-28T07:41:06.204Z,5.40
2023-03-28T07:43:32.995Z,4.90
2023-03-28T07:46:06.398Z,4.70
2023-03-28T07:48:34.931Z,4.47
2023-03-28T07:51:02.001Z,4.85
2023-03-28T07:53:29.550Z,4.70
2023-03-28T07:55:56.500Z,4.80
2023-03-28T07:58:23.795Z,4.13
2023-03-28T08:00:50.904Z,4.32
2023-03-28T08:03:18.814Z,4.35
2023-03-28T08:05:51.808Z,4.90
2023-03-28T08:08:20.270Z,4.43
2023-03-28T08:10:50.953Z,4.55
2023-03-28T08:13:18.531Z,4.57
2023-03-28T08:15:45.191Z,4.65
2023-03-28T08:18:12.964Z,4.28
2023-03-28T08:20:39.635Z,4.55
2023-03-28T08:23:07.375Z,4.35
2023-03-28T08:25:33.999Z,4.43
2023-03-28T08:28:00.597Z,4.20
2023-03-28T08:30:27.446Z,4.95
2023-03-28T08:32:54.084Z,4.43
2023-03-28T08:35:20.771Z,4.40
2023-03-28T08:37:48.285Z,4.40
2023-03-28T08:40:18.913Z,4.25
2023-03-28T08:43:08.332Z,3.90
2023-03-28T08:45:50.258Z,3.80
2023-03-28T08:48:38.007Z,3.92
2023-03-28T08:51:27.852Z,4.50
2023-03-28T08:54:17.523Z,3.90
2023-03-28T08:56:53.249Z,4.10
2023-03-28T08:59:43.970Z,4.20
2023-03-28T09:02:18.484Z,4.43
2023-03-28T09:04:45.567Z,4.28
2023-03-28T09:07:51.767Z,4.47
2023-03-28T09:10:42.841Z,4.57
2023-03-28T09:13:24.656Z,4.10
2023-03-28T09:16:12.389Z,4.30
2023-03-28T09:18:54.695Z,4.63
2023-03-28T09:21:31.330Z,4.63
2023-03-28T09:24:12.224Z,5.25
2023-03-28T09:26:53.826Z,4.72
2023-03-28T09:29:25.125Z,5.07
2023-03-28T09:32:01.665Z,4.43
2023-03-28T09:34:38.218Z,4.10
2023-03-28T09:37:27.779Z,4.28
2023-03-28T09:39:56.958Z,4.20
2023-03-28T09:42:30.112Z,4.30
2023-03-28T09:45:25.928Z,4.18
2023-03-28T09:47:52.754Z,5.35
2023-03-28T09:50:20.005Z,4.30
2023-03-28T09:52:50.291Z,4.50
2023-03-28T09:55:23.322Z,4.93
2023-03-28T09:58:03.842Z,4.35
2023-03-28T10:00:35.482Z,4.50
2023-03-28T10:03:02.358Z,4.30
2023-03-28T10:05:38.538Z,4.50
2023-03-28T10:08:20.768Z,4.25
2023-03-28T10:10:58.907Z,4.70
2023-03-28T10:13:26.258Z,4.78
2023-03-28T10:15:56.892Z,4.82
2023-03-28T10:18:27.780Z,4.95
2023-03-28T10:20:54.718Z,4.70
2023-03-28T10:23:23.629Z,4.82
2023-03-28T10:25:53.089Z,5.15
2023-03-28T10:28:31.803Z,4.63
2023-03-28T10:31:01.766Z,4.55
2023-03-28T10:33:36.003Z,4.45
2023-03-28T10:36:09.601Z,5.47
2023-03-28T10:38:46.511Z,4.50
2023-03-28T10:41:22.712Z,4.70
2023-03-28T10:43:50.759Z,4.97
2023-03-28T10:46:24.132Z,4.70
2023-03-28T10:49:17.006Z,4.80
2023-03-28T10:51:45.969Z,4.15
2023-03-28T10:54:16.180Z,4.50
2023-03-28T10:56:57.664Z,4.70
2023-03-28T10:59:32.870Z,4.30
2023-03-28T11:02:30.660Z,4.25
2023-03-28T11:05:28.707Z,4.03
2023-03-28T11:08:12.954Z,4.35
2023-03-28T11:10:44.468Z,4.32
2023-03-28T11:13:23.824Z,3.95
2023-03-28T11:15:59.449Z,4.40
2023-03-28T11:18:46.917Z,4.53
2023-03-28T11:21:22.309Z,4.95
2023-03-28T11:24:00.259Z,4.15
2023-03-28T11:26:44.430Z,4.60
2023-03-28T11:29:42.412Z,4.20
2023-03-28T11:32:42.522Z,4.57
2023-03-28T11:35:47.533Z,4.60
2023-03-28T11:38:27.134Z,4.20
2023-03-28T11:41:04.129Z,4.07
2023-03-28T11:43:52.904Z,4.60
2023-03-28T11:46:32.897Z,4.78
2023-03-28T11:49:09.003Z,5.00
2023-03-28T11:51:42.902Z,5.15
2023-03-28T11:54:18.738Z,4.70
2023-03-28T11:57:19.748Z,4.50
2023-03-28T12:00:33.678Z,4.45
2023-03-28T12:03:16.208Z,4.90
2023-03-28T12:05:49.290Z,4.35
2023-03-28T12:08:47.523Z,4.70
2023-03-28T12:11:31.839Z,4.97
2023-03-28T12:14:16.191Z,4.55
2023-03-28T12:16:48.003Z,4.30
2023-03-28T12:19:30.428Z,4.60
2023-03-28T12:22:04.183Z,4.53
2023-03-28T12:24:44.547Z,4.13
2023-03-28T12:27:23.552Z,4.10
2023-03-28T12:30:21.115Z,4.20
2023-03-28T12:33:01.530Z,4.53
2023-03-28T12:35:53.161Z,4.72
2023-03-28T12:38:45.578Z,4.50
2023-03-28T12:41:19.079Z,4.65
2023-03-28T12:44:06.185Z,4.50
2023-03-28T12:46:48.324Z,5.10
2023-03-28T12:49:41.514Z,4.68
2023-03-28T12:52:16.994Z,6.97
2023-03-28T12:55:04.783Z,4.63
2023-03-28T12:57:40.826Z,4.88
2023-03-28T13:00:16.484Z,4.60
2023-03-28T13:03:07.981Z,5.10
2023-03-28T13:06:09.172Z,5.22
2023-03-28T13:09:13.269Z,5.20
2023-03-28T13:12:01.992Z,4.90
2023-03-28T13:14:34.325Z,4.80
2023-03-28T13:17:03.076Z,4.75
2023-03-28T13:20:11.286Z,4.90
2023-03-28T13:22:58.569Z,4.78
2023-03-28T13:25:29.384Z,4.53
2023-03-28T13:28:12.429Z,5.00
2023-03-28T13:30:44.461Z,5.00
2023-03-28T13:33:13.897Z,4.40
2023-03-28T13:35:40.881Z,4.40
2023-03-28T13:38:15.422Z,4.78
2023-03-28T13:41:00.537Z,5.60
2023-03-28T13:43:54.641Z,5.05
2023-03-28T13:46:30.885Z,5.20
2023-03-28T13:49:11.104Z,5.00
2023-03-28T13:51:44.746Z,5.10
2023-03-28T13:54:11.855Z,5.32
2023-03-28T13:56:43.329Z,5.40
2023-03-28T13:59:17.902Z,4.80
2023-03-28T14:01:46.629Z,4.90
2023-03-28T14:04:29.876Z,4.75
2023-03-28T14:06:57.179Z,4.80
2023-03-28T14:09:34.753Z,5.47
2023-03-28T14:12:12.814Z,5.07
2023-03-28T14:14:51.373Z,5.03
2023-03-28T14:17:22.791Z,5.28
2023-03-28T14:20:01.425Z,5.15
2023-03-28T14:22:30.434Z,5.28
2023-03-28T14:25:07.273Z,5.45
2023-03-28T14:27:39.573Z,4.97
2023-03-28T14:30:26.046Z,5.25
2023-03-28T14:33:00.454Z,5.38
2023-03-28T14:35:32.457Z,5.00
2023-03-28T14:38:01.300Z,5.70
2023-03-28T14:40:27.937Z,5.20
2023-03-28T14:42:59.269Z,5.25
2023-03-28T14:45:26.957Z,5.65
2023-03-28T14:47:56.155Z,5.35
2023-03-28T14:50:25.404Z,5.18
2023-03-28T14:52:52.074Z,5.60
2023-03-28T14:55:22.227Z,5.47
2023-03-28T14:57:52.146Z,5.65
2023-03-28T15:00:26.380Z,5.50
2023-03-28T15:02:53.745Z,5.25
2023-03-28T15:05:22.281Z,5.65
2023-03-28T15:08:01.955Z,5.38
2023-03-28T15:10:29.665Z,5.30
2023-03-28T15:13:13.883Z,5.40
2023-03-28T15:15:46.141Z,5.30
2023-03-28T15:18:17.618Z,6.55
2023-03-28T15:20:49.450Z,5.80
2023-03-28T15:23:22.330Z,5.65
2023-03-28T15:25:49.007Z,5.90
2023-03-28T15:28:18.089Z,6.00
2023-03-28T15:30:46.850Z,5.50
2023-03-28T15:33:22.593Z,5.50
2023-03-28T15:35:52.537Z,5.25
2023-03-28T15:38:27.761Z,5.65
2023-03-28T15:41:27.880Z,5.13
2023-03-28T15:43:54.466Z,5.78
2023-03-28T15:46:22.633Z,5.30
2023-03-28T15:48:49.578Z,5.60
2023-03-28T15:51:18.060Z,6.20
2023-03-28T15:53:50.377Z,6.30
2023-03-28T15:56:41.144Z,5.60
2023-03-28T15:59:17.515Z,5.47
2023-03-28T16:01:44.406Z,6.28
2023-03-28T16:04:21.226Z,5.60
2023-03-28T16:06:48.314Z,5.50
2023-03-28T16:09:22.302Z,5.38
2023-03-28T16:11:59.364Z,5.75
2023-03-28T16:14:26.384Z,5.38
2023-03-28T16:16:54.697Z,5.90
2023-03-28T16:19:27.481Z,5.15
2023-03-28T16:21:54.297Z,5.22
2023-03-28T16:24:21.396Z,5.60
2023-03-28T16:26:48.454Z,5.55
2023-03-28T16:29:15.257Z,5.25
2023-03-28T16:31:42.095Z,5.72
2023-03-28T16:34:10.153Z,5.32
2023-03-28T16:36:37.837Z,5.35
2023-03-28T16:39:06.254Z,5.68
2023-03-28T16:41:32.898Z,5.97
2023-03-28T16:43:59.719Z,5.03
2023-03-28T16:46:26.513Z,6.20
2023-03-28T16:48:53.203Z,5.50
2023-03-28T16:51:19.889Z,6.75
2023-03-28T16:53:46.561Z,5.20
2023-03-28T16:56:15.040Z,5.60
2023-03-28T16:58:42.044Z,5.45
2023-03-28T17:01:11.608Z,5.35
2023-03-28T17:03:38.475Z,6.18
2023-03-28T17:06:09.585Z,5.80
2023-03-28T17:08:36.348Z,5.78
2023-03-28T17:11:09.319Z,5.63
2023-03-28T17:13:37.314Z,5.25
2023-03-28T17:16:04.895Z,5.30
2023-03-28T17:18:31.792Z,5.90
2023-03-28T17:21:09.862Z,5.20
2023-03-28T17:23:38.015Z,4.97
2023-03-28T17:26:07.884Z,5.80
2023-03-28T17:28:36.892Z,5.60
2023-03-28T17:31:08.053Z,6.10
2023-03-28T17:33:34.953Z,6.00
2023-03-28T17:36:14.211Z,5.57
2023-03-28T17:38:40.896Z,6.60
2023-03-28T17:41:09.022Z,5.53
2023-03-28T17:43:35.766Z,5.78
2023-03-28T17:46:03.070Z,5.65
2023-03-28T17:48:29.948Z,5.43
2023-03-28T17:50:56.564Z,5.45
2023-03-28T17:53:23.218Z,5.40
2023-03-28T17:55:49.893Z,5.20
2023-03-28T17:58:16.533Z,5.45
2023-03-28T18:00:43.157Z,5.70
2023-03-28T18:03:10.679Z,5.25
2023-03-28T18:05:37.296Z,5.30
2023-03-28T18:08:04.211Z,5.50
2023-03-28T18:10:31.625Z,5.22
2023-03-28T18:12:58.305Z,5.25
2023-03-28T18:15:24.961Z,6.13
2023-03-28T18:17:51.969Z,5.57
2023-03-28T18:20:18.835Z,5.10
2023-03-28T18:22:46.263Z,5.18
2023-03-28T18:25:12.890Z,5.40
2023-03-28T18:27:39.645Z,6.50
2023-03-28T18:30:08.250Z,5.60
2023-03-28T18:32:36.262Z,5.15
2023-03-28T18:35:06.923Z,5.47
2023-03-28T18:37:34.188Z,5.35
2023-03-28T18:40:01.828Z,5.30
2023-03-28T18:42:30.161Z,5.55
2023-03-28T18:44:57.113Z,5.45
2023-03-28T18:47:23.763Z,5.50
2023-03-28T18:49:50.721Z,5.68
2023-03-28T18:52:17.332Z,5.55
2023-03-28T18:54:46.471Z,5.32
2023-03-28T18:57:13.250Z,5.65
2023-03-28T18:59:40.419Z,5.60
2023-03-28T19:02:13.944Z,5.63
2023-03-28T19:04:40.660Z,5.80
2023-03-28T19:07:08.176Z,5.60
2023-03-28T19:09:34.973Z,5.50
2023-03-28T19:14:35.466Z,5.65
2023-03-28T19:17:02.476Z,5.55
2023-03-28T19:19:29.176Z,6.10
2023-03-28T19:21:55.952Z,6.00
2023-03-28T19:24:23.356Z,6.28
2023-03-28T19:26:50.243Z,5.78
2023-03-28T19:29:16.969Z,5.80
2023-03-28T19:31:43.806Z,5.72
2023-03-28T19:34:16.922Z,5.70
2023-03-28T19:36:43.595Z,6.30
2023-03-28T19:39:10.605Z,5.60
2023-03-28T19:41:37.228Z,5.63
2023-03-28T19:44:04.196Z,5.85
2023-03-28T19:46:33.268Z,7.00
2023-03-28T19:49:03.535Z,6.80
2023-03-28T19:51:30.223Z,5.72
2023-03-28T19:53:56.934Z,6.05
2023-03-28T19:56:23.669Z,6.55
2023-03-28T19:58:52.214Z,6.40
2023-03-28T20:01:19.652Z,6.13
2023-03-28T20:03:49.369Z,6.22
2023-03-28T20:06:16.932Z,5.80
2023-03-28T20:08:43.808Z,6.35
2023-03-28T20:11:12.617Z,6.68
2023-03-28T20:13:40.088Z,6.10
2023-03-28T20:16:08.619Z,5.93
2023-03-28T20:18:36.224Z,5.82
2023-03-28T20:21:05.518Z,6.07
2023-03-28T20:23:33.161Z,6.28
2023-03-28T20:26:01.587Z,6.78
2023-03-28T20:28:32.548Z,6.50
2023-03-28T20:30:59.451Z,5.97
2023-03-28T20:33:26.316Z,6.00
2023-03-28T20:35:57.521Z,5.47
2023-03-28T20:38:25.315Z,6.13
2023-03-28T20:40:52.029Z,6.35
2023-03-28T20:43:22.728Z,5.90
2023-03-28T20:45:53.967Z,5.78
2023-03-28T20:48:34.939Z,5.95
2023-03-28T20:51:17.448Z,5.90
2023-03-28T20:53:47.578Z,5.95
2023-03-28T20:56:14.510Z,6.15
2023-03-28T20:58:42.698Z,6.88
2023-03-28T21:01:12.059Z,5.95
2023-03-28T21:03:49.711Z,5.30
2023-03-28T21:06:19.408Z,5.78
2023-03-28T21:08:48.193Z,5.60
2023-03-28T21:11:16.781Z,5.72
2023-03-28T21:13:43.608Z,5.63
2023-03-28T21:16:11.844Z,5.18
2023-03-28T21:18:38.525Z,5.72
2023-03-28T21:21:07.286Z,6.00
2023-03-28T21:23:38.872Z,5.60
2023-03-28T21:26:07.870Z,5.40
2023-03-28T21:28:35.483Z,5.45
2023-03-28T21:31:08.966Z,5.63
2023-03-28T21:33:37.100Z,5.47
2023-03-28T21:36:07.167Z,5.40
2023-03-28T21:38:34.666Z,5.22
2023-03-28T21:41:01.861Z,5.65
2023-03-28T21:43:28.704Z,5.43
2023-03-28T21:45:55.442Z,5.40
2023-03-28T21:48:22.167Z,5.65
2023-03-28T21:50:53.677Z,5.75
2023-03-28T21:53:21.531Z,5.90
2023-03-28T21:55:48.271Z,5.70
2023-03-28T21:58:14.862Z,5.80
2023-03-28T22:00:41.834Z,5.60
2023-03-28T22:03:08.694Z,5.60
2023-03-28T22:05:42.504Z,5.63
2023-03-28T22:08:12.282Z,5.75
2023-03-28T22:10:46.573Z,5.65
2023-03-28T22:13:13.944Z,6.00
2023-03-28T22:15:41.416Z,5.80
2023-03-28T22:18:09.319Z,5.25
2023-03-28T22:20:38.152Z,5.63
2023-03-28T22:23:05.949Z,5.90
2023-03-28T22:25:38.072Z,6.00
2023-03-28T22:28:07.322Z,6.32
2023-03-28T22:30:35.877Z,6.20
2023-03-28T22:33:03.876Z,5.68
2023-03-28T22:35:32.221Z,5.90
2023-03-28T22:37:59.768Z,5.60
2023-03-28T22:40:26.686Z,5.45
2023-03-28T22:42:54.115Z,5.60
2023-03-28T22:45:26.448Z,5.35
2023-03-28T22:47:53.873Z,5.50
2023-03-28T22:50:22.013Z,5.80
2023-03-28T22:52:52.875Z,5.65
2023-03-28T22:55:22.189Z,5.80
2023-03-28T22:57:51.517Z,5.30
2023-03-28T23:00:18.791Z,5.85
2023-03-28T23:02:46.603Z,5.63
2023-03-28T23:05:13.596Z,6.32
2023-03-28T23:07:41.464Z,5.50
2023-03-28T23:10:14.371Z,6.00
2023-03-28T23:12:42.485Z,5.30
2023-03-28T23:15:09.969Z,5.55
2023-03-28T23:17:36.877Z,5.68
2023-03-28T23:20:12.664Z,5.50
2023-03-28T23:22:41.013Z,5.75
2023-03-28T23:25:08.541Z,5.75
2023-03-28T23:27:35.508Z,5.93
2023-03-28T23:30:02.391Z,5.10
2023-03-28T23:32:29.123Z,5.63
2023-03-28T23:34:55.898Z,5.65
2023-03-28T23:37:26.065Z,5.90
2023-03-28T23:39:53.822Z,5.45
2023-03-28T23:42:21.439Z,5.50
2023-03-28T23:44:48.136Z,5.97
2023-03-28T23:47:15.311Z,5.50
2023-03-28T23:49:42.591Z,5.38
2023-03-28T23:52:12.624Z,5.50
2023-03-28T23:54:39.968Z,5.40
2023-03-28T23:57:07.315Z,5.40
2023-03-28T23:59:34.393Z,5.43
